createdAt,value
2022-07-29T00:11:23.424Z,24.56
2022-07-29T00:31:23.389Z,24.50
2022-07-29T00:51:23.360Z,24.31
2022-07-29T01:11:23.328Z,24.37
2022-07-29T01:31:23.289Z,24.37
2022-07-29T01:51:23.272Z,24.43
2022-07-29T02:11:23.237Z,24.43
2022-07-29T02:31:23.198Z,24.43
2022-07-29T02:51:23.168Z,24.37
2022-07-29T03:11:23.143Z,24.37
2022-07-29T03:31:23.113Z,24.37
2022-07-29T03:51:23.082Z,24.37
2022-07-29T04:11:23.040Z,24.25
2022-07-29T04:31:23.001Z,24.25
2022-07-29T04:51:22.984Z,24.37
2022-07-29T05:11:22.965Z,24.25
2022-07-29T05:31:22.927Z,24.31
2022-07-29T05:51:22.885Z,24.31
2022-07-29T06:11:22.854Z,24.18
2022-07-29T06:31:22.839Z,24.00
2022-07-29T06:51:22.806Z,24.00
2022-07-29T07:11:22.776Z,24.50
2022-07-29T07:31:22.744Z,24.37
2022-07-29T07:51:22.707Z,24.43
2022-07-29T08:11:22.661Z,24.31
2022-07-29T08:31:22.642Z,24.18
2022-07-29T08:51:22.611Z,24.25
2022-07-29T09:11:22.577Z,24.50
2022-07-29T09:31:22.553Z,24.50
2022-07-29T09:51:22.510Z,24.75
2022-07-29T10:11:22.479Z,24.50
2022-07-29T10:31:22.459Z,24.50
2022-07-29T10:51:22.430Z,24.56
2022-07-29T11:11:22.387Z,25.00
2022-07-29T11:31:22.393Z,25.00
2022-07-29T11:51:22.327Z,24.87
2022-07-29T12:11:22.327Z,24.81
2022-07-29T12:31:22.285Z,24.62
2022-07-29T12:51:22.241Z,24.87
2022-07-29T13:11:22.200Z,24.75
2022-07-29T13:31:22.172Z,24.75
2022-07-29T13:51:22.142Z,25.12
2022-07-29T14:11:22.106Z,25.06
2022-07-29T14:31:22.081Z,25.12
2022-07-29T14:51:22.044Z,25.06
2022-07-29T15:11:22.016Z,24.81
2022-07-29T15:31:21.973Z,24.87
2022-07-29T15:51:21.955Z,25.00
2022-07-29T16:11:21.914Z,24.81
2022-07-29T16:31:21.892Z,24.81
2022-07-29T16:51:21.858Z,24.93
2022-07-29T17:11:21.817Z,24.93
2022-07-29T17:31:21.778Z,24.81
2022-07-29T17:51:21.763Z,24.56
2022-07-29T18:11:21.740Z,24.62
2022-07-29T18:31:21.693Z,24.62
2022-07-29T18:51:21.655Z,24.56
2022-07-29T19:11:21.621Z,24.68
2022-07-29T19:31:21.612Z,24.50
2022-07-29T19:51:21.590Z,24.50
2022-07-29T20:11:21.539Z,24.56
2022-07-29T20:31:21.497Z,24.68
2022-07-29T20:51:21.465Z,24.25
2022-07-29T21:11:21.436Z,24.37
2022-07-29T21:31:21.425Z,24.37
2022-07-29T21:51:21.390Z,24.50
2022-07-29T22:11:21.349Z,24.31
2022-07-29T22:31:21.319Z,24.56
2022-07-29T22:51:21.297Z,24.18
2022-07-29T23:11:21.271Z,24.25
2022-07-29T23:31:21.233Z,24.25
2022-07-29T23:51:21.202Z,24.18
